sensor_id;sensor_type;location;lat;lon;timestamp;P1;durP1;ratioP1;P2;durP2;ratioP2
69417;SDS011;56610;48.872;2.400;2023-02-22T00:00:29;11.82;;;10.63;;
69417;SDS011;56610;48.872;2.400;2023-02-22T00:03:08;13.90;;;11.43;;
69417;SDS011;56610;48.872;2.400;2023-02-22T00:05:49;14.15;;;11.80;;
69417;SDS011;56610;48.872;2.400;2023-02-22T00:08:20;13.32;;;11.38;;
69417;SDS011;56610;48.872;2.400;2023-02-22T00:10:48;11.50;;;10.27;;
69417;SDS011;56610;48.872;2.400;2023-02-22T00:13:17;14.10;;;12.18;;
69417;SDS011;56610;48.872;2.400;2023-02-22T00:15:46;13.07;;;11.68;;
69417;SDS011;56610;48.872;2.400;2023-02-22T00:18:13;11.98;;;10.48;;
69417;SDS011;56610;48.872;2.400;2023-02-22T00:20:39;14.05;;;11.80;;
69417;SDS011;56610;48.872;2.400;2023-02-22T00:23:06;14.18;;;12.55;;
69417;SDS011;56610;48.872;2.400;2023-02-22T00:25:33;15.25;;;12.15;;
69417;SDS011;56610;48.872;2.400;2023-02-22T00:28:00;14.70;;;12.32;;
69417;SDS011;56610;48.872;2.400;2023-02-22T00:30:27;15.55;;;13.02;;
69417;SDS011;56610;48.872;2.400;2023-02-22T00:32:55;15.50;;;13.25;;
69417;SDS011;56610;48.872;2.400;2023-02-22T00:35:22;14.40;;;12.77;;
69417;SDS011;56610;48.872;2.400;2023-02-22T00:37:50;16.25;;;13.15;;
69417;SDS011;56610;48.872;2.400;2023-02-22T00:40:22;14.30;;;12.43;;
69417;SDS011;56610;48.872;2.400;2023-02-22T00:42:49;14.77;;;12.48;;
69417;SDS011;56610;48.872;2.400;2023-02-22T00:45:16;15.57;;;13.23;;
69417;SDS011;56610;48.872;2.400;2023-02-22T00:47:44;15.98;;;13.13;;
69417;SDS011;56610;48.872;2.400;2023-02-22T00:50:10;14.27;;;12.75;;
69417;SDS011;56610;48.872;2.400;2023-02-22T00:52:36;13.25;;;11.07;;
69417;SDS011;56610;48.872;2.400;2023-02-22T00:55:04;16.52;;;13.45;;
69417;SDS011;56610;48.872;2.400;2023-02-22T00:57:32;12.63;;;11.05;;
69417;SDS011;56610;48.872;2.400;2023-02-22T01:00:04;14.55;;;12.50;;
69417;SDS011;56610;48.872;2.400;2023-02-22T01:02:37;14.43;;;12.70;;
69417;SDS011;56610;48.872;2.400;2023-02-22T01:05:04;14.07;;;12.57;;
69417;SDS011;56610;48.872;2.400;2023-02-22T01:07:33;14.20;;;12.13;;
69417;SDS011;56610;48.872;2.400;2023-02-22T01:09:59;15.00;;;12.10;;
69417;SDS011;56610;48.872;2.400;2023-02-22T01:12:28;14.75;;;11.73;;
69417;SDS011;56610;48.872;2.400;2023-02-22T01:14:54;13.23;;;11.52;;
69417;SDS011;56610;48.872;2.400;2023-02-22T01:17:23;13.15;;;11.82;;
69417;SDS011;56610;48.872;2.400;2023-02-22T01:19:49;14.88;;;12.13;;
69417;SDS011;56610;48.872;2.400;2023-02-22T01:22:16;12.52;;;11.25;;
69417;SDS011;56610;48.872;2.400;2023-02-22T01:24:47;13.50;;;11.43;;
69417;SDS011;56610;48.872;2.400;2023-02-22T01:27:15;14.35;;;12.27;;
69417;SDS011;56610;48.872;2.400;2023-02-22T01:29:41;13.15;;;11.80;;
69417;SDS011;56610;48.872;2.400;2023-02-22T01:32:07;13.98;;;12.52;;
69417;SDS011;56610;48.872;2.400;2023-02-22T01:34:33;12.65;;;11.13;;
69417;SDS011;56610;48.872;2.400;2023-02-22T01:36:59;13.70;;;12.30;;
69417;SDS011;56610;48.872;2.400;2023-02-22T01:39:30;12.75;;;11.20;;
69417;SDS011;56610;48.872;2.400;2023-02-22T01:41:56;13.63;;;11.90;;
69417;SDS011;56610;48.872;2.400;2023-02-22T01:46:55;12.30;;;11.00;;
69417;SDS011;56610;48.872;2.400;2023-02-22T01:49:23;15.30;;;11.63;;
69417;SDS011;56610;48.872;2.400;2023-02-22T01:51:52;13.20;;;11.00;;
69417;SDS011;56610;48.872;2.400;2023-02-22T01:57:34;13.20;;;11.90;;
69417;SDS011;56610;48.872;2.400;2023-02-22T01:59:45;12.27;;;10.98;;
69417;SDS011;56610;48.872;2.400;2023-02-22T02:02:13;13.45;;;12.15;;
69417;SDS011;56610;48.872;2.400;2023-02-22T02:04:43;13.82;;;12.20;;
69417;SDS011;56610;48.872;2.400;2023-02-22T02:07:10;12.55;;;11.25;;
69417;SDS011;56610;48.872;2.400;2023-02-22T02:09:43;13.55;;;11.65;;
69417;SDS011;56610;48.872;2.400;2023-02-22T02:12:38;12.82;;;11.48;;
69417;SDS011;56610;48.872;2.400;2023-02-22T02:15:19;12.35;;;11.15;;
69417;SDS011;56610;48.872;2.400;2023-02-22T02:23:27;12.95;;;10.70;;
69417;SDS011;56610;48.872;2.400;2023-02-22T02:34:03;14.82;;;11.60;;
69417;SDS011;56610;48.872;2.400;2023-02-22T02:41:53;13.55;;;12.10;;
69417;SDS011;56610;48.872;2.400;2023-02-22T02:44:30;12.98;;;11.55;;
69417;SDS011;56610;48.872;2.400;2023-02-22T02:47:02;13.65;;;12.25;;
69417;SDS011;56610;48.872;2.400;2023-02-22T02:49:38;12.93;;;11.25;;
69417;SDS011;56610;48.872;2.400;2023-02-22T02:52:12;16.67;;;13.10;;
69417;SDS011;56610;48.872;2.400;2023-02-22T02:54:40;13.07;;;11.77;;
69417;SDS011;56610;48.872;2.400;2023-02-22T02:57:07;13.43;;;11.10;;
69417;SDS011;56610;48.872;2.400;2023-02-22T02:59:34;13.38;;;12.07;;
69417;SDS011;56610;48.872;2.400;2023-02-22T03:04:47;13.45;;;12.15;;
69417;SDS011;56610;48.872;2.400;2023-02-22T03:13:38;12.55;;;11.13;;
69417;SDS011;56610;48.872;2.400;2023-02-22T03:24:24;12.40;;;11.10;;
69417;SDS011;56610;48.872;2.400;2023-02-22T03:27:00;14.20;;;11.43;;
69417;SDS011;56610;48.872;2.400;2023-02-22T03:29:33;12.27;;;10.98;;
69417;SDS011;56610;48.872;2.400;2023-02-22T03:32:04;12.48;;;10.93;;
69417;SDS011;56610;48.872;2.400;2023-02-22T03:34:38;12.27;;;11.07;;
69417;SDS011;56610;48.872;2.400;2023-02-22T03:37:10;12.93;;;11.10;;
69417;SDS011;56610;48.872;2.400;2023-02-22T03:39:43;12.35;;;11.02;;
69417;SDS011;56610;48.872;2.400;2023-02-22T03:42:12;12.23;;;11.02;;
69417;SDS011;56610;48.872;2.400;2023-02-22T03:44:44;11.98;;;10.77;;
69417;SDS011;56610;48.872;2.400;2023-02-22T03:47:12;12.60;;;11.13;;
69417;SDS011;56610;48.872;2.400;2023-02-22T03:49:46;12.50;;;11.23;;
69417;SDS011;56610;48.872;2.400;2023-02-22T03:52:17;13.23;;;11.82;;
69417;SDS011;56610;48.872;2.400;2023-02-22T03:54:43;13.63;;;12.20;;
69417;SDS011;56610;48.872;2.400;2023-02-22T03:57:11;13.65;;;11.77;;
69417;SDS011;56610;48.872;2.400;2023-02-22T03:59:44;12.98;;;11.63;;
69417;SDS011;56610;48.872;2.400;2023-02-22T04:02:10;13.30;;;11.90;;
69417;SDS011;56610;48.872;2.400;2023-02-22T04:04:37;13.35;;;11.98;;
69417;SDS011;56610;48.872;2.400;2023-02-22T04:07:02;14.18;;;12.13;;
69417;SDS011;56610;48.872;2.400;2023-02-22T04:09:28;12.70;;;11.40;;
69417;SDS011;56610;48.872;2.400;2023-02-22T04:11:54;14.65;;;11.95;;
69417;SDS011;56610;48.872;2.400;2023-02-22T04:14:19;13.13;;;11.77;;
69417;SDS011;56610;48.872;2.400;2023-02-22T04:16:45;12.82;;;11.52;;
69417;SDS011;56610;48.872;2.400;2023-02-22T04:19:11;11.85;;;10.52;;
69417;SDS011;56610;48.872;2.400;2023-02-22T04:21:36;12.15;;;10.95;;
69417;SDS011;56610;48.872;2.400;2023-02-22T04:24:02;12.45;;;10.98;;
69417;SDS011;56610;48.872;2.400;2023-02-22T04:26:28;13.30;;;11.98;;
69417;SDS011;56610;48.872;2.400;2023-02-22T04:28:53;13.75;;;11.93;;
69417;SDS011;56610;48.872;2.400;2023-02-22T04:31:19;12.85;;;11.55;;
69417;SDS011;56610;48.872;2.400;2023-02-22T04:33:45;12.10;;;10.82;;
69417;SDS011;56610;48.872;2.400;2023-02-22T04:36:10;12.52;;;11.02;;
69417;SDS011;56610;48.872;2.400;2023-02-22T04:38:37;12.10;;;10.80;;
69417;SDS011;56610;48.872;2.400;2023-02-22T04:41:03;12.82;;;11.48;;
69417;SDS011;56610;48.872;2.400;2023-02-22T04:43:28;12.63;;;11.25;;
69417;SDS011;56610;48.872;2.400;2023-02-22T04:45:54;13.35;;;11.95;;
69417;SDS011;56610;48.872;2.400;2023-02-22T04:48:20;11.90;;;10.80;;
69417;SDS011;56610;48.872;2.400;2023-02-22T04:50:45;13.13;;;11.60;;
69417;SDS011;56610;48.872;2.400;2023-02-22T04:53:11;13.02;;;11.48;;
69417;SDS011;56610;48.872;2.400;2023-02-22T04:55:37;14.10;;;11.68;;
69417;SDS011;56610;48.872;2.400;2023-02-22T04:58:03;12.95;;;11.63;;
69417;SDS011;56610;48.872;2.400;2023-02-22T05:00:28;12.57;;;11.32;;
69417;SDS011;56610;48.872;2.400;2023-02-22T05:02:54;13.05;;;11.30;;
69417;SDS011;56610;48.872;2.400;2023-02-22T05:05:20;12.63;;;11.32;;
69417;SDS011;56610;48.872;2.400;2023-02-22T05:07:49;12.77;;;11.48;;
69417;SDS011;56610;48.872;2.400;2023-02-22T05:10:15;11.45;;;10.25;;
69417;SDS011;56610;48.872;2.400;2023-02-22T05:12:41;11.18;;;10.07;;
69417;SDS011;56610;48.872;2.400;2023-02-22T05:15:07;12.45;;;11.00;;
69417;SDS011;56610;48.872;2.400;2023-02-22T05:17:34;11.98;;;10.77;;
69417;SDS011;56610;48.872;2.400;2023-02-22T05:20:00;12.77;;;10.93;;
69417;SDS011;56610;48.872;2.400;2023-02-22T05:22:27;11.82;;;10.65;;
69417;SDS011;56610;48.872;2.400;2023-02-22T05:24:53;12.43;;;10.50;;
69417;SDS011;56610;48.872;2.400;2023-02-22T05:27:19;12.38;;;11.18;;
69417;SDS011;56610;48.872;2.400;2023-02-22T05:29:45;12.55;;;11.02;;
69417;SDS011;56610;48.872;2.400;2023-02-22T05:32:11;11.57;;;10.48;;
69417;SDS011;56610;48.872;2.400;2023-02-22T05:34:37;13.55;;;11.65;;
69417;SDS011;56610;48.872;2.400;2023-02-22T05:37:03;12.15;;;11.00;;
69417;SDS011;56610;48.872;2.400;2023-02-22T05:39:29;12.35;;;11.02;;
69417;SDS011;56610;48.872;2.400;2023-02-22T05:41:55;11.73;;;10.52;;
69417;SDS011;56610;48.872;2.400;2023-02-22T05:44:21;12.80;;;11.18;;
69417;SDS011;56610;48.872;2.400;2023-02-22T05:46:46;14.52;;;11.52;;
69417;SDS011;56610;48.872;2.400;2023-02-22T05:49:12;11.77;;;10.63;;
69417;SDS011;56610;48.872;2.400;2023-02-22T05:51:38;13.00;;;11.68;;
69417;SDS011;56610;48.872;2.400;2023-02-22T05:54:03;12.75;;;11.52;;
69417;SDS011;56610;48.872;2.400;2023-02-22T05:56:29;12.45;;;11.15;;
69417;SDS011;56610;48.872;2.400;2023-02-22T05:58:55;12.43;;;11.23;;
69417;SDS011;56610;48.872;2.400;2023-02-22T06:01:21;11.52;;;10.32;;
69417;SDS011;56610;48.872;2.400;2023-02-22T06:03:47;12.27;;;11.07;;
69417;SDS011;56610;48.872;2.400;2023-02-22T06:06:14;12.98;;;10.75;;
69417;SDS011;56610;48.872;2.400;2023-02-22T06:08:40;12.20;;;10.63;;
69417;SDS011;56610;48.872;2.400;2023-02-22T06:11:06;11.73;;;10.52;;
69417;SDS011;56610;48.872;2.400;2023-02-22T06:13:33;11.38;;;10.27;;
69417;SDS011;56610;48.872;2.400;2023-02-22T06:15:59;12.82;;;11.55;;
69417;SDS011;56610;48.872;2.400;2023-02-22T06:18:25;12.68;;;11.40;;
69417;SDS011;56610;48.872;2.400;2023-02-22T06:20:51;12.52;;;11.30;;
69417;SDS011;56610;48.872;2.400;2023-02-22T06:23:17;12.68;;;11.38;;
69417;SDS011;56610;48.872;2.400;2023-02-22T06:25:42;12.20;;;10.82;;
69417;SDS011;56610;48.872;2.400;2023-02-22T06:28:08;13.35;;;11.95;;
69417;SDS011;56610;48.872;2.400;2023-02-22T06:30:34;16.15;;;12.82;;
69417;SDS011;56610;48.872;2.400;2023-02-22T06:33:00;12.30;;;11.18;;
69417;SDS011;56610;48.872;2.400;2023-02-22T06:35:26;13.50;;;11.48;;
69417;SDS011;56610;48.872;2.400;2023-02-22T06:37:51;13.68;;;11.88;;
69417;SDS011;56610;48.872;2.400;2023-02-22T06:40:17;15.27;;;12.15;;
69417;SDS011;56610;48.872;2.400;2023-02-22T06:42:43;13.02;;;11.63;;
69417;SDS011;56610;48.872;2.400;2023-02-22T06:45:12;13.23;;;11.93;;
69417;SDS011;56610;48.872;2.400;2023-02-22T06:47:39;14.25;;;12.30;;
69417;SDS011;56610;48.872;2.400;2023-02-22T06:50:16;12.50;;;11.20;;
69417;SDS011;56610;48.872;2.400;2023-02-22T06:52:45;13.30;;;12.00;;
69417;SDS011;56610;48.872;2.400;2023-02-22T06:55:14;13.68;;;12.27;;
69417;SDS011;56610;48.872;2.400;2023-02-22T06:57:41;14.60;;;12.70;;
69417;SDS011;56610;48.872;2.400;2023-02-22T07:00:07;15.77;;;14.27;;
69417;SDS011;56610;48.872;2.400;2023-02-22T07:02:33;13.95;;;12.55;;
69417;SDS011;56610;48.872;2.400;2023-02-22T07:04:59;14.43;;;13.02;;
69417;SDS011;56610;48.872;2.400;2023-02-22T07:07:24;15.35;;;13.85;;
69417;SDS011;56610;48.872;2.400;2023-02-22T07:09:50;15.23;;;13.20;;
69417;SDS011;56610;48.872;2.400;2023-02-22T07:12:16;14.50;;;13.00;;
69417;SDS011;56610;48.872;2.400;2023-02-22T07:14:41;14.68;;;13.18;;
69417;SDS011;56610;48.872;2.400;2023-02-22T07:17:07;14.55;;;13.05;;
69417;SDS011;56610;48.872;2.400;2023-02-22T07:19:33;15.25;;;13.75;;
69417;SDS011;56610;48.872;2.400;2023-02-22T07:21:58;17.00;;;15.30;;
69417;SDS011;56610;48.872;2.400;2023-02-22T07:24:25;15.07;;;13.57;;
69417;SDS011;56610;48.872;2.400;2023-02-22T07:29:18;15.50;;;13.88;;
69417;SDS011;56610;48.872;2.400;2023-02-22T07:31:46;17.15;;;15.20;;
69417;SDS011;56610;48.872;2.400;2023-02-22T07:34:12;17.45;;;14.98;;
69417;SDS011;56610;48.872;2.400;2023-02-22T07:36:38;17.05;;;15.05;;
69417;SDS011;56610;48.872;2.400;2023-02-22T07:39:04;16.33;;;14.73;;
69417;SDS011;56610;48.872;2.400;2023-02-22T07:41:32;16.25;;;14.65;;
69417;SDS011;56610;48.872;2.400;2023-02-22T07:43:58;18.23;;;15.32;;
69417;SDS011;56610;48.872;2.400;2023-02-22T07:46:24;17.70;;;14.35;;
69417;SDS011;56610;48.872;2.400;2023-02-22T07:48:49;16.88;;;15.15;;
69417;SDS011;56610;48.872;2.400;2023-02-22T07:51:15;16.92;;;15.13;;
69417;SDS011;56610;48.872;2.400;2023-02-22T07:53:44;17.23;;;15.43;;
69417;SDS011;56610;48.872;2.400;2023-02-22T07:56:10;16.75;;;15.15;;
69417;SDS011;56610;48.872;2.400;2023-02-22T07:58:36;19.25;;;16.73;;
69417;SDS011;56610;48.872;2.400;2023-02-22T08:01:02;17.92;;;16.13;;
69417;SDS011;56610;48.872;2.400;2023-02-22T08:03:29;17.92;;;15.35;;
69417;SDS011;56610;48.872;2.400;2023-02-22T08:06:00;18.55;;;16.65;;
69417;SDS011;56610;48.872;2.400;2023-02-22T08:08:27;18.33;;;15.85;;
69417;SDS011;56610;48.872;2.400;2023-02-22T08:10:53;17.15;;;14.98;;
69417;SDS011;56610;48.872;2.400;2023-02-22T08:13:18;17.85;;;16.08;;
69417;SDS011;56610;48.872;2.400;2023-02-22T08:15:46;18.88;;;16.95;;
69417;SDS011;56610;48.872;2.400;2023-02-22T08:18:13;18.58;;;16.77;;
69417;SDS011;56610;48.872;2.400;2023-02-22T08:20:41;19.40;;;17.60;;
69417;SDS011;56610;48.872;2.400;2023-02-22T08:23:09;20.05;;;17.95;;
69417;SDS011;56610;48.872;2.400;2023-02-22T08:25:37;20.63;;;18.52;;
69417;SDS011;56610;48.872;2.400;2023-02-22T08:28:06;20.02;;;18.02;;
69417;SDS011;56610;48.872;2.400;2023-02-22T08:30:35;20.52;;;18.33;;
69417;SDS011;56610;48.872;2.400;2023-02-22T08:33:01;21.08;;;18.98;;
69417;SDS011;56610;48.872;2.400;2023-02-22T08:35:31;20.15;;;17.33;;
69417;SDS011;56610;48.872;2.400;2023-02-22T08:37:59;20.23;;;18.08;;
69417;SDS011;56610;48.872;2.400;2023-02-22T08:42:53;21.40;;;19.20;;
69417;SDS011;56610;48.872;2.400;2023-02-22T08:45:18;21.48;;;18.02;;
69417;SDS011;56610;48.872;2.400;2023-02-22T08:47:46;20.70;;;18.70;;
69417;SDS011;56610;48.872;2.400;2023-02-22T08:50:19;22.23;;;20.03;;
69417;SDS011;56610;48.872;2.400;2023-02-22T08:52:51;22.65;;;20.30;;
69417;SDS011;56610;48.872;2.400;2023-02-22T08:55:23;21.88;;;19.67;;
69417;SDS011;56610;48.872;2.400;2023-02-22T08:57:52;24.08;;;20.35;;
69417;SDS011;56610;48.872;2.400;2023-02-22T09:00:18;21.55;;;19.35;;
69417;SDS011;56610;48.872;2.400;2023-02-22T09:02:48;23.13;;;20.83;;
69417;SDS011;56610;48.872;2.400;2023-02-22T09:05:15;20.92;;;18.83;;
69417;SDS011;56610;48.872;2.400;2023-02-22T09:07:41;23.00;;;20.25;;
69417;SDS011;56610;48.872;2.400;2023-02-22T09:10:10;23.65;;;21.27;;
69417;SDS011;56610;48.872;2.400;2023-02-22T09:12:39;22.95;;;20.60;;
69417;SDS011;56610;48.872;2.400;2023-02-22T09:15:05;22.95;;;20.70;;
69417;SDS011;56610;48.872;2.400;2023-02-22T09:17:31;22.30;;;19.98;;
69417;SDS011;56610;48.872;2.400;2023-02-22T09:20:18;22.65;;;20.25;;
69417;SDS011;56610;48.872;2.400;2023-02-22T09:22:45;23.20;;;20.80;;
69417;SDS011;56610;48.872;2.400;2023-02-22T09:25:11;24.30;;;21.90;;
69417;SDS011;56610;48.872;2.400;2023-02-22T09:27:37;21.77;;;19.45;;
69417;SDS011;56610;48.872;2.400;2023-02-22T09:30:07;22.33;;;20.10;;
69417;SDS011;56610;48.872;2.400;2023-02-22T09:32:39;24.92;;;21.85;;
69417;SDS011;56610;48.872;2.400;2023-02-22T09:35:05;23.00;;;20.77;;
69417;SDS011;56610;48.872;2.400;2023-02-22T09:37:32;24.90;;;21.73;;
69417;SDS011;56610;48.872;2.400;2023-02-22T09:39:58;22.85;;;20.40;;
69417;SDS011;56610;48.872;2.400;2023-02-22T09:47:47;22.30;;;20.05;;
69417;SDS011;56610;48.872;2.400;2023-02-22T09:50:19;22.40;;;20.20;;
69417;SDS011;56610;48.872;2.400;2023-02-22T09:52:55;22.85;;;20.27;;
69417;SDS011;56610;48.872;2.400;2023-02-22T09:55:38;19.67;;;17.67;;
69417;SDS011;56610;48.872;2.400;2023-02-22T10:00:59;20.65;;;18.45;;
69417;SDS011;56610;48.872;2.400;2023-02-22T10:03:45;21.25;;;19.05;;
69417;SDS011;56610;48.872;2.400;2023-02-22T10:06:31;20.50;;;18.40;;
69417;SDS011;56610;48.872;2.400;2023-02-22T10:09:00;22.85;;;20.67;;
69417;SDS011;56610;48.872;2.400;2023-02-22T10:11:51;21.88;;;19.58;;
69417;SDS011;56610;48.872;2.400;2023-02-22T10:14:34;20.75;;;18.33;;
69417;SDS011;56610;48.872;2.400;2023-02-22T10:25:40;22.67;;;20.48;;
69417;SDS011;56610;48.872;2.400;2023-02-22T10:28:17;23.40;;;21.10;;
69417;SDS011;56610;48.872;2.400;2023-02-22T10:30:58;21.40;;;19.10;;
69417;SDS011;56610;48.872;2.400;2023-02-22T10:33:33;22.25;;;19.98;;
69417;SDS011;56610;48.872;2.400;2023-02-22T10:36:09;20.50;;;18.08;;
69417;SDS011;56610;48.872;2.400;2023-02-22T10:38:44;22.27;;;20.08;;
69417;SDS011;56610;48.872;2.400;2023-02-22T10:41:27;22.77;;;20.38;;
69417;SDS011;56610;48.872;2.400;2023-02-22T10:43:55;22.27;;;19.50;;
69417;SDS011;56610;48.872;2.400;2023-02-22T10:46:22;23.00;;;19.00;;
69417;SDS011;56610;48.872;2.400;2023-02-22T10:48:50;22.75;;;20.40;;
69417;SDS011;56610;48.872;2.400;2023-02-22T10:51:19;23.13;;;20.63;;
69417;SDS011;56610;48.872;2.400;2023-02-22T10:53:45;23.63;;;21.15;;
69417;SDS011;56610;48.872;2.400;2023-02-22T10:56:25;21.88;;;19.67;;
69417;SDS011;56610;48.872;2.400;2023-02-22T10:58:54;22.27;;;20.00;;
69417;SDS011;56610;48.872;2.400;2023-02-22T11:04:00;23.02;;;20.63;;
69417;SDS011;56610;48.872;2.400;2023-02-22T11:06:46;24.05;;;21.65;;
69417;SDS011;56610;48.872;2.400;2023-02-22T11:09:17;23.60;;;21.23;;
69417;SDS011;56610;48.872;2.400;2023-02-22T11:11:47;22.15;;;19.95;;
69417;SDS011;56610;48.872;2.400;2023-02-22T11:14:24;24.70;;;22.27;;
69417;SDS011;56610;48.872;2.400;2023-02-22T11:16:52;24.30;;;21.90;;
69417;SDS011;56610;48.872;2.400;2023-02-22T11:19:21;24.50;;;22.00;;
69417;SDS011;56610;48.872;2.400;2023-02-22T11:21:54;24.08;;;21.70;;
69417;SDS011;56610;48.872;2.400;2023-02-22T11:24:24;27.15;;;24.38;;
69417;SDS011;56610;48.872;2.400;2023-02-22T11:27:19;25.40;;;22.73;;
69417;SDS011;56610;48.872;2.400;2023-02-22T11:30:07;24.58;;;21.90;;
69417;SDS011;56610;48.872;2.400;2023-02-22T11:35:53;23.80;;;21.25;;
69417;SDS011;56610;48.872;2.400;2023-02-22T11:43:47;23.88;;;21.30;;
69417;SDS011;56610;48.872;2.400;2023-02-22T11:48:53;24.45;;;21.70;;
69417;SDS011;56610;48.872;2.400;2023-02-22T11:59:53;25.23;;;22.50;;
69417;SDS011;56610;48.872;2.400;2023-02-22T12:11:07;25.10;;;22.48;;
69417;SDS011;56610;48.872;2.400;2023-02-22T12:19:10;25.30;;;22.25;;
69417;SDS011;56610;48.872;2.400;2023-02-22T12:21:45;25.83;;;22.63;;
69417;SDS011;56610;48.872;2.400;2023-02-22T12:24:21;27.48;;;24.50;;
69417;SDS011;56610;48.872;2.400;2023-02-22T12:26:56;25.17;;;22.45;;
69417;SDS011;56610;48.872;2.400;2023-02-22T12:29:29;27.48;;;23.02;;
69417;SDS011;56610;48.872;2.400;2023-02-22T12:34:45;26.88;;;23.77;;
69417;SDS011;56610;48.872;2.400;2023-02-22T12:40:10;29.35;;;25.05;;
69417;SDS011;56610;48.872;2.400;2023-02-22T12:46:04;26.23;;;23.42;;
69417;SDS011;56610;48.872;2.400;2023-02-22T12:51:30;26.63;;;22.13;;
69417;SDS011;56610;48.872;2.400;2023-02-22T12:56:38;25.02;;;22.33;;
69417;SDS011;56610;48.872;2.400;2023-02-22T12:59:12;25.33;;;22.50;;
69417;SDS011;56610;48.872;2.400;2023-02-22T13:01:57;25.10;;;21.73;;
69417;SDS011;56610;48.872;2.400;2023-02-22T13:04:28;24.23;;;21.40;;
69417;SDS011;56610;48.872;2.400;2023-02-22T13:15:57;25.55;;;20.00;;
69417;SDS011;56610;48.872;2.400;2023-02-22T13:18:51;20.83;;;18.58;;
69417;SDS011;56610;48.872;2.400;2023-02-22T13:21:27;24.70;;;22.08;;
69417;SDS011;56610;48.872;2.400;2023-02-22T13:23:57;23.50;;;20.20;;
69417;SDS011;56610;48.872;2.400;2023-02-22T13:26:47;26.20;;;21.00;;
69417;SDS011;56610;48.872;2.400;2023-02-22T13:29:24;24.35;;;20.60;;
69417;SDS011;56610;48.872;2.400;2023-02-22T13:43:18;22.70;;;19.25;;
69417;SDS011;56610;48.872;2.400;2023-02-22T13:56:49;24.83;;;21.83;;
69417;SDS011;56610;48.872;2.400;2023-02-22T13:59:23;24.15;;;21.65;;
69417;SDS011;56610;48.872;2.400;2023-02-22T14:01:56;24.13;;;21.55;;
69417;SDS011;56610;48.872;2.400;2023-02-22T14:06:52;25.23;;;21.55;;
69417;SDS011;56610;48.872;2.400;2023-02-22T14:17:35;23.05;;;19.10;;
69417;SDS011;56610;48.872;2.400;2023-02-22T14:20:25;24.45;;;21.88;;
69417;SDS011;56610;48.872;2.400;2023-02-22T14:26:08;24.80;;;22.15;;
69417;SDS011;56610;48.872;2.400;2023-02-22T14:31:21;24.33;;;21.73;;
69417;SDS011;56610;48.872;2.400;2023-02-22T14:39:09;26.58;;;23.10;;
69417;SDS011;56610;48.872;2.400;2023-02-22T14:41:37;26.90;;;23.48;;
69417;SDS011;56610;48.872;2.400;2023-02-22T14:44:07;28.25;;;23.73;;
69417;SDS011;56610;48.872;2.400;2023-02-22T14:46:36;28.48;;;23.95;;
69417;SDS011;56610;48.872;2.400;2023-02-22T14:49:08;26.52;;;21.83;;
69417;SDS011;56610;48.872;2.400;2023-02-22T14:51:43;25.48;;;22.25;;
69417;SDS011;56610;48.872;2.400;2023-02-22T14:54:23;31.90;;;23.38;;
69417;SDS011;56610;48.872;2.400;2023-02-22T14:59:36;27.88;;;22.60;;
69417;SDS011;56610;48.872;2.400;2023-02-22T15:02:18;26.50;;;23.75;;
69417;SDS011;56610;48.872;2.400;2023-02-22T15:04:50;24.30;;;21.70;;
69417;SDS011;56610;48.872;2.400;2023-02-22T15:07:22;29.85;;;23.02;;
69417;SDS011;56610;48.872;2.400;2023-02-22T15:09:51;26.60;;;23.67;;
69417;SDS011;56610;48.872;2.400;2023-02-22T15:12:28;25.80;;;22.67;;
69417;SDS011;56610;48.872;2.400;2023-02-22T15:15:12;23.25;;;20.80;;
69417;SDS011;56610;48.872;2.400;2023-02-22T15:17:45;23.27;;;20.52;;
69417;SDS011;56610;48.872;2.400;2023-02-22T15:20:21;22.00;;;19.55;;
69417;SDS011;56610;48.872;2.400;2023-02-22T15:22:49;19.88;;;17.42;;
69417;SDS011;56610;48.872;2.400;2023-02-22T15:25:15;19.52;;;17.48;;
69417;SDS011;56610;48.872;2.400;2023-02-22T15:27:47;17.75;;;15.98;;
69417;SDS011;56610;48.872;2.400;2023-02-22T15:30:22;20.67;;;18.48;;
69417;SDS011;56610;48.872;2.400;2023-02-22T15:32:51;21.60;;;18.40;;
69417;SDS011;56610;48.872;2.400;2023-02-22T15:37:57;19.13;;;17.23;;
69417;SDS011;56610;48.872;2.400;2023-02-22T15:40:23;18.75;;;16.75;;
69417;SDS011;56610;48.872;2.400;2023-02-22T15:42:57;17.23;;;15.40;;
69417;SDS011;56610;48.872;2.400;2023-02-22T15:45:28;16.60;;;14.80;;
69417;SDS011;56610;48.872;2.400;2023-02-22T15:47:56;16.58;;;14.80;;
69417;SDS011;56610;48.872;2.400;2023-02-22T15:53:05;13.60;;;12.20;;
69417;SDS011;56610;48.872;2.400;2023-02-22T15:58:06;11.38;;;10.15;;
69417;SDS011;56610;48.872;2.400;2023-02-22T16:00:35;14.63;;;13.13;;
69417;SDS011;56610;48.872;2.400;2023-02-22T16:03:06;12.88;;;10.95;;
69417;SDS011;56610;48.872;2.400;2023-02-22T16:08:16;13.20;;;11.90;;
69417;SDS011;56610;48.872;2.400;2023-02-22T16:13:37;14.10;;;12.63;;
69417;SDS011;56610;48.872;2.400;2023-02-22T16:18:46;21.55;;;18.33;;
69417;SDS011;56610;48.872;2.400;2023-02-22T16:21:13;13.60;;;12.30;;
69417;SDS011;56610;48.872;2.400;2023-02-22T16:23:51;12.05;;;10.68;;
69417;SDS011;56610;48.872;2.400;2023-02-22T16:28:55;11.93;;;10.73;;
69417;SDS011;56610;48.872;2.400;2023-02-22T16:31:23;10.00;;;9.00;;
69417;SDS011;56610;48.872;2.400;2023-02-22T16:33:52;8.50;;;7.70;;
69417;SDS011;56610;48.872;2.400;2023-02-22T16:36:18;8.48;;;7.68;;
69417;SDS011;56610;48.872;2.400;2023-02-22T16:38:47;15.38;;;13.55;;
69417;SDS011;56610;48.872;2.400;2023-02-22T16:41:17;13.10;;;11.73;;
69417;SDS011;56610;48.872;2.400;2023-02-22T16:43:46;12.77;;;11.52;;
69417;SDS011;56610;48.872;2.400;2023-02-22T16:46:15;12.88;;;11.57;;
69417;SDS011;56610;48.872;2.400;2023-02-22T16:48:48;9.70;;;8.80;;
69417;SDS011;56610;48.872;2.400;2023-02-22T16:53:45;9.68;;;8.82;;
69417;SDS011;56610;48.872;2.400;2023-02-22T16:56:13;9.98;;;8.98;;
69417;SDS011;56610;48.872;2.400;2023-02-22T16:58:41;9.70;;;8.77;;
69417;SDS011;56610;48.872;2.400;2023-02-22T17:01:08;8.70;;;7.85;;
69417;SDS011;56610;48.872;2.400;2023-02-22T17:03:34;8.32;;;7.53;;
69417;SDS011;56610;48.872;2.400;2023-02-22T17:05:59;9.38;;;8.48;;
69417;SDS011;56610;48.872;2.400;2023-02-22T17:08:25;8.07;;;7.38;;
69417;SDS011;56610;48.872;2.400;2023-02-22T17:10:51;9.95;;;9.05;;
69417;SDS011;56610;48.872;2.400;2023-02-22T17:13:21;10.05;;;9.05;;
69417;SDS011;56610;48.872;2.400;2023-02-22T17:18:15;9.20;;;8.30;;
69417;SDS011;56610;48.872;2.400;2023-02-22T17:20:46;9.65;;;8.65;;
69417;SDS011;56610;48.872;2.400;2023-02-22T17:23:13;10.50;;;9.40;;
69417;SDS011;56610;48.872;2.400;2023-02-22T17:25:40;10.30;;;9.40;;
69417;SDS011;56610;48.872;2.400;2023-02-22T17:28:12;10.15;;;9.05;;
69417;SDS011;56610;48.872;2.400;2023-02-22T17:30:38;10.82;;;9.82;;
69417;SDS011;56610;48.872;2.400;2023-02-22T17:33:06;10.00;;;9.10;;
69417;SDS011;56610;48.872;2.400;2023-02-22T17:38:00;9.98;;;8.98;;
69417;SDS011;56610;48.872;2.400;2023-02-22T17:40:30;9.02;;;8.20;;
69417;SDS011;56610;48.872;2.400;2023-02-22T17:42:57;9.85;;;8.95;;
69417;SDS011;56610;48.872;2.400;2023-02-22T17:45:24;9.23;;;8.30;;
69417;SDS011;56610;48.872;2.400;2023-02-22T17:47:50;10.15;;;9.05;;
69417;SDS011;56610;48.872;2.400;2023-02-22T17:50:18;10.75;;;9.65;;
69417;SDS011;56610;48.872;2.400;2023-02-22T17:52:45;10.80;;;9.70;;